Time;durP1;ratioP1;P1;durP2;ratioP2;P2;SDS_P1;SDS_P2;PMS_P1;PMS_P2;Temp;Humidity;BMP_temperature;BMP_pressure;BME280_temperature;BME280_humidity;BME280_pressure;Samples;Min_cycle;Max_cycle;Signal;HPM_P1;HPM_P2
2022/08/11 00:02:02;;;;;;;0.30;0.30;;;;;;;24.77;35.60;101599.16;5183708;28;20049;-80
2022/08/11 00:04:38;;;;;;;0.25;0.25;;;;;;;24.75;35.62;101601.94;5174124;28;20044;-80
2022/08/11 00:07:09;;;;;;;0.98;0.90;;;;;;;24.70;35.80;101597.91;5199105;28;20118;-80
2022/08/11 00:09:41;;;;;;;0.30;0.30;;;;;;;24.66;36.12;101599.94;5176399;28;20033;-80
2022/08/11 00:12:15;;;;;;;5.68;1.67;;;;;;;24.64;35.71;101588.44;5174986;28;20037;-80
2022/08/11 00:14:55;;;;;;;0.40;0.40;;;;;;;24.59;35.86;101593.25;5198414;28;20266;-80
2022/08/11 00:17:29;;;;;;;0.60;0.60;;;;;;;24.56;36.32;101590.81;5182394;28;20096;-80
2022/08/11 00:20:09;;;;;;;0.30;0.30;;;;;;;24.52;35.99;101582.16;5182334;28;20041;-79
2022/08/11 00:22:41;;;;;;;1.10;1.00;;;;;;;24.49;35.91;101585.03;5176980;28;20033;-80
2022/08/11 00:25:19;;;;;;;0.52;0.52;;;;;;;24.45;35.99;101595.13;5164644;28;20034;-80
2022/08/11 00:27:50;;;;;;;0.63;0.63;;;;;;;24.42;35.71;101600.72;5177543;28;20061;-80
2022/08/11 00:30:23;;;;;;;0.47;0.47;;;;;;;24.38;36.48;101604.59;5167069;28;20033;-80
2022/08/11 00:32:57;;;;;;;0.50;0.50;;;;;;;24.36;36.43;101595.81;5182607;28;20046;-79
2022/08/11 00:35:30;;;;;;;0.25;0.25;;;;;;;24.33;36.29;101596.03;5205202;28;20105;-80
2022/08/11 00:38:02;;;;;;;1.75;0.75;;;;;;;24.28;36.58;101593.69;5191105;28;20060;-80
2022/08/11 00:40:40;;;;;;;0.60;0.60;;;;;;;24.26;36.50;101594.75;5180614;28;20041;-80
2022/08/11 00:43:23;;;;;;;1.20;0.80;;;;;;;24.22;36.41;101598.63;5197117;28;20080;-80
2022/08/11 00:46:18;;;;;;;0.70;0.70;;;;;;;24.18;36.38;101592.63;5215444;28;20053;-80
2022/08/11 00:49:26;;;;;;;0.40;0.40;;;;;;;24.15;35.49;101582.97;5175992;28;20026;-80
2022/08/11 00:52:26;;;;;;;0.20;0.20;;;;;;;24.10;36.30;101582.44;5178664;28;20041;-80
2022/08/11 00:55:50;;;;;;;0.57;0.57;;;;;;;24.03;36.60;101594.56;5168877;28;20037;-80
2022/08/11 00:58:39;;;;;;;;;;;;;;;24.01;36.63;101591.13;5178673;28;20052;-80
2022/08/11 01:01:16;;;;;;;3.40;1.33;;;;;;;23.95;36.42;101591.56;5174225;28;19914;-79
2022/08/11 01:04:21;;;;;;;1.95;1.50;;;;;;;23.94;36.06;101584.47;5158589;28;20400;-79
2022/08/11 01:07:33;;;;;;;2.03;0.85;;;;;;;23.85;36.46;101592.16;5215161;28;20045;-80
2022/08/11 01:10:26;;;;;;;0.30;0.30;;;;;;;23.80;36.40;101588.97;5177248;28;20533;-80
2022/08/11 01:13:31;;;;;;;0.40;0.32;;;;;;;23.74;36.37;101589.41;5164575;28;20522;-80
2022/08/11 01:16:29;;;;;;;0.50;0.50;;;;;;;23.67;37.00;101593.47;5210962;28;20083;-80
2022/08/11 01:19:30;;;;;;;0.45;0.45;;;;;;;23.62;37.56;101590.22;5184185;28;20037;-79
2022/08/11 01:22:27;;;;;;;0.30;0.30;;;;;;;23.55;37.34;101587.97;5204948;28;20145;-80
2022/08/11 01:25:07;;;;;;;0.88;0.82;;;;;;;23.54;37.83;101588.09;5198983;28;20045;-80
2022/08/11 01:28:15;;;;;;;8.05;1.70;;;;;;;23.51;37.39;101588.28;5189544;28;20109;-80
2022/08/11 01:31:04;;;;;;;0.30;0.30;;;;;;;23.47;38.29;101590.31;5194852;28;20057;-80
2022/08/11 01:33:53;;;;;;;2.13;1.63;;;;;;;23.45;38.24;101591.41;5180481;28;20557;-80
2022/08/11 01:36:30;;;;;;;2.83;1.00;;;;;;;23.43;37.61;101591.47;5183688;28;20451;-79
2022/08/11 01:39:07;;;;;;;0.20;0.20;;;;;;;23.38;37.48;101591.81;5176051;28;20045;-80
2022/08/11 01:45:18;;;;;;;0.30;0.30;;;;;;;23.29;37.21;101589.75;5192810;28;20106;-80
2022/08/11 01:48:09;;;;;;;0.30;0.30;;;;;;;23.25;36.76;101588.22;5186623;28;20044;-79
2022/08/11 01:50:50;;;;;;;0.65;0.65;;;;;;;23.20;37.94;101585.88;5186101;28;20040;-80
2022/08/11 01:53:21;;;;;;;1.45;0.57;;;;;;;23.17;37.73;101591.41;5205325;28;20094;-80
2022/08/11 01:56:28;;;;;;;0.35;0.35;;;;;;;23.13;37.31;101584.53;5159647;28;20053;-80
2022/08/11 01:59:15;;;;;;;0.40;0.40;;;;;;;23.08;37.74;101592.03;5187364;28;20070;-80
2022/08/11 02:02:10;;;;;;;0.30;0.30;;;;;;;23.06;37.25;101596.59;5183626;28;20589;-79
2022/08/11 02:05:00;;;;;;;3.92;0.30;;;;;;;23.00;37.80;101583.63;5167581;28;20044;-80
2022/08/11 02:08:00;;;;;;;0.50;0.50;;;;;;;22.93;38.46;101588.53;5172949;28;20092;-79
2022/08/11 02:13:44;;;;;;;0.30;0.30;;;;;;;22.87;38.31;101596.97;5180617;28;20036;-80
2022/08/11 02:16:28;;;;;;;0.50;0.50;;;;;;;22.82;38.72;101585.69;5182188;28;20092;-80
2022/08/11 02:25:46;;;;;;;0.55;0.55;;;;;;;22.72;38.99;101590.78;5205551;28;20052;-79
2022/08/11 02:28:48;;;;;;;0.30;0.30;;;;;;;22.70;38.70;101587.34;5175572;28;20132;-80
2022/08/11 02:34:43;;;;;;;1.23;1.13;;;;;;;22.63;38.20;101593.09;5191177;28;20648;-80
2022/08/11 02:37:23;;;;;;;0.63;0.63;;;;;;;22.60;37.83;101585.25;5159271;28;20553;-80
2022/08/11 02:39:56;;;;;;;0.80;0.80;;;;;;;22.53;38.37;101578.59;5183876;28;20057;-80
2022/08/11 02:42:45;;;;;;;0.82;0.82;;;;;;;22.50;39.00;101586.84;5199044;28;20153;-80
2022/08/11 02:45:45;;;;;;;1.85;0.45;;;;;;;22.45;39.28;101583.56;5174051;28;20038;-80
2022/08/11 02:51:23;;;;;;;0.57;0.57;;;;;;;22.39;39.02;101579.50;5188933;28;20045;-80
2022/08/11 02:54:16;;;;;;;0.63;0.45;;;;;;;22.33;39.72;101579.84;5184473;28;20030;-80
2022/08/11 02:57:03;;;;;;;0.50;0.50;;;;;;;22.31;39.42;101579.09;5186787;28;20148;-80
2022/08/11 03:00:06;;;;;;;0.52;0.45;;;;;;;22.29;39.34;101591.69;5186094;28;20029;-80
2022/08/11 03:02:57;;;;;;;1.10;1.00;;;;;;;22.23;39.59;101589.41;5157153;28;20041;-80
2022/08/11 03:05:52;;;;;;;0.25;0.25;;;;;;;22.20;39.78;101590.44;5196735;28;20038;-80
2022/08/11 03:08:40;;;;;;;0.30;0.30;;;;;;;22.17;39.16;101596.84;5210697;28;20025;-80
2022/08/11 03:17:52;;;;;;;0.30;0.30;;;;;;;22.06;39.14;101594.00;5195985;28;20466;-80
2022/08/11 03:20:41;;;;;;;1.25;1.10;;;;;;;22.02;38.89;101601.31;5195867;28;20045;-79
2022/08/11 03:23:32;;;;;;;0.50;0.50;;;;;;;21.97;39.70;101595.41;5191858;28;20029;-80
2022/08/11 03:26:37;;;;;;;0.30;0.30;;;;;;;21.93;39.58;101593.03;5201558;28;20092;-80
2022/08/11 03:29:21;;;;;;;0.40;0.40;;;;;;;21.88;40.58;101587.97;5184104;28;20040;-80
2022/08/11 03:32:00;;;;;;;1.55;0.55;;;;;;;21.84;40.64;101597.97;5203974;28;20030;-80
2022/08/11 03:34:36;;;;;;;0.30;0.30;;;;;;;21.83;40.23;101590.06;5187727;28;20494;-79
2022/08/11 03:43:34;;;;;;;0.45;0.45;;;;;;;21.77;40.21;101593.13;5155549;28;20041;-79
2022/08/11 03:46:11;;;;;;;1.25;1.15;;;;;;;21.73;40.74;101586.22;5164724;28;20036;-80
2022/08/11 03:49:09;;;;;;;0.40;0.40;;;;;;;21.72;40.45;101587.19;5200251;28;20730;-80
2022/08/11 03:51:54;;;;;;;0.30;0.30;;;;;;;21.68;40.89;101589.19;5179990;28;20041;-79
2022/08/11 03:54:28;;;;;;;0.57;0.57;;;;;;;21.67;41.13;101590.13;5187565;28;20117;-80
2022/08/11 03:57:33;;;;;;;0.57;0.57;;;;;;;21.64;40.45;101585.84;5183280;28;20045;-79
2022/08/11 04:00:38;;;;;;;0.50;0.50;;;;;;;21.62;40.42;101584.22;5197724;28;20060;-80
2022/08/11 04:03:39;;;;;;;0.20;0.20;;;;;;;21.58;40.93;101586.22;5199030;28;20045;-80
2022/08/11 04:06:22;;;;;;;3.70;1.30;;;;;;;21.54;40.97;101571.28;5174959;28;20529;-79
2022/08/11 04:09:23;;;;;;;0.38;0.38;;;;;;;21.53;41.45;101577.56;5203669;28;20249;-79
2022/08/11 04:12:39;;;;;;;1.45;0.85;;;;;;;21.51;41.60;101579.50;5213130;28;20045;-79
2022/08/11 04:18:39;;;;;;;0.30;0.30;;;;;;;21.47;40.21;101586.81;5205120;28;20049;-81
2022/08/11 04:21:25;;;;;;;1.00;0.90;;;;;;;21.46;39.93;101584.22;5197976;28;20052;-80
2022/08/11 04:24:05;;;;;;;0.57;0.47;;;;;;;21.39;40.38;101584.59;5217684;28;20026;-80
2022/08/11 04:27:22;;;;;;;0.82;0.82;;;;;;;21.36;39.94;101579.44;5221296;28;20045;-80
2022/08/11 04:30:17;;;;;;;0.60;0.60;;;;;;;21.37;40.48;101586.50;5189828;28;20042;-83
2022/08/11 04:33:10;;;;;;;1.80;1.23;;;;;;;21.29;41.11;101583.41;5205143;28;20045;-82
2022/08/11 04:36:01;;;;;;;0.67;0.67;;;;;;;21.29;41.32;101575.41;5211631;28;20030;-82
2022/08/11 04:39:03;;;;;;;0.30;0.30;;;;;;;21.22;41.68;101579.38;5207824;28;20021;-81
2022/08/11 04:45:26;;;;;;;0.50;0.50;;;;;;;21.12;41.61;101587.09;5192922;28;20053;-82
2022/08/11 05:01:41;;;;;;;0.68;0.68;;;;;;;21.04;40.69;101592.84;5208270;28;20046;-82
2022/08/11 05:07:44;;;;;;;0.82;0.82;;;;;;;21.08;40.99;101585.53;5174292;28;20477;-81
2022/08/11 05:10:24;;;;;;;0.80;0.80;;;;;;;21.02;41.58;101596.56;5218413;28;20049;-81
2022/08/11 05:27:09;;;;;;;0.40;0.40;;;;;;;21.05;41.73;101591.91;5199392;28;20072;-81
2022/08/11 05:36:49;;;;;;;0.85;0.85;;;;;;;20.98;44.30;101616.38;5193479;28;20453;-82
2022/08/11 05:56:55;;;;;;;0.40;0.40;;;;;;;21.16;41.50;101619.78;5182607;28;20118;-81
2022/08/11 05:59:27;;;;;;;1.25;1.10;;;;;;;21.20;41.33;101621.31;5169336;28;20057;-81
2022/08/11 06:02:02;;;;;;;0.65;0.65;;;;;;;21.24;41.40;101617.53;5210536;28;20041;-81
2022/08/11 06:04:33;;;;;;;0.40;0.40;;;;;;;21.34;41.23;101612.50;5201160;28;20091;-82
2022/08/11 06:07:08;;;;;;;0.20;0.20;;;;;;;21.41;41.59;101613.00;5207871;28;20644;-82
2022/08/11 06:09:49;;;;;;;0.30;0.30;;;;;;;21.43;41.34;101611.97;5197483;28;20040;-82
2022/08/11 06:12:23;;;;;;;1.23;1.23;;;;;;;21.45;41.73;101615.41;5181878;28;20042;-81
2022/08/11 06:14:56;;;;;;;0.30;0.30;;;;;;;21.52;41.34;101615.91;5204399;28;20100;-82
2022/08/11 06:17:31;;;;;;;;;;;;;;;21.59;40.89;101611.97;5191240;28;20041;-82
2022/08/11 06:20:03;;;;;;;0.30;0.30;;;;;;;21.63;40.95;101612.63;5224017;28;19920;-81
2022/08/11 06:22:34;;;;;;;0.75;0.75;;;;;;;21.65;41.14;101610.75;5187853;28;20477;-81
2022/08/11 06:25:09;;;;;;;0.50;0.50;;;;;;;21.67;40.79;101614.16;5185935;28;20120;-81
2022/08/11 06:27:44;;;;;;;0.90;0.55;;;;;;;21.73;40.33;101616.47;5187671;28;20136;-82
2022/08/11 06:30:17;;;;;;;0.75;0.70;;;;;;;21.75;40.65;101611.03;5175651;28;20040;-81
2022/08/11 06:32:54;;;;;;;0.73;0.73;;;;;;;21.80;40.39;101616.94;5170531;28;20049;-82
2022/08/11 06:35:33;;;;;;;0.40;0.40;;;;;;;21.82;40.34;101612.38;5197508;28;20085;-82
2022/08/11 06:38:06;;;;;;;2.33;0.68;;;;;;;21.83;40.59;101609.59;5188456;28;20801;-81
2022/08/11 06:41:29;;;;;;;;;;;;;;;21.87;40.34;101612.94;5183068;28;20042;-81
2022/08/11 06:44:04;;;;;;;0.40;0.40;;;;;;;21.93;40.16;101619.75;5194652;28;19996;-81
2022/08/11 06:46:40;;;;;;;0.45;0.45;;;;;;;21.95;40.26;101616.00;5183303;28;20048;-82
2022/08/11 06:52:09;;;;;;;0.50;0.50;;;;;;;22.00;40.44;101615.72;5171667;28;20060;-82
2022/08/11 06:54:54;;;;;;;0.95;0.55;;;;;;;22.03;40.16;101618.22;5176549;28;20037;-81
2022/08/11 07:00:28;;;;;;;0.32;0.32;;;;;;;22.14;40.28;101617.56;5197065;28;20321;-82
2022/08/11 07:03:14;;;;;;;0.88;0.88;;;;;;;22.14;40.09;101617.56;5199544;28;20060;-81
2022/08/11 07:06:02;;;;;;;0.28;0.28;;;;;;;22.19;39.97;101617.28;5183434;28;20051;-81
2022/08/11 07:17:48;;;;;;;0.77;0.77;;;;;;;22.33;40.08;101615.47;5188742;28;20081;-81
2022/08/11 07:29:02;;;;;;;9.75;1.85;;;;;;;22.51;39.83;101619.78;5200907;28;20051;-82
2022/08/11 07:31:40;;;;;;;0.82;0.82;;;;;;;22.62;39.74;101615.44;5228587;28;20042;-83
2022/08/11 07:34:27;;;;;;;0.80;0.80;;;;;;;22.60;39.92;101614.69;5222386;28;20056;-82
2022/08/11 07:37:02;;;;;;;0.63;0.63;;;;;;;22.64;39.64;101615.38;5207304;28;20042;-83
2022/08/11 07:39:37;;;;;;;0.50;0.50;;;;;;;22.63;40.13;101617.19;5197587;28;20040;-82
2022/08/11 07:42:12;;;;;;;2.15;1.05;;;;;;;22.61;40.13;101613.72;5241041;28;20045;-83
2022/08/11 07:53:17;;;;;;;0.30;0.30;;;;;;;22.81;39.30;101603.56;5191239;28;20526;-81
2022/08/11 07:55:49;;;;;;;0.40;0.40;;;;;;;22.82;39.60;101601.75;5194861;28;20116;-82
2022/08/11 08:18:24;;;;;;;0.30;0.30;;;;;;;23.20;38.92;101601.09;5202231;28;20045;-81
2022/08/11 08:21:10;;;;;;;0.32;0.32;;;;;;;23.20;38.80;101607.28;5194114;28;20074;-81
2022/08/11 08:23:46;;;;;;;0.35;0.35;;;;;;;23.27;38.79;101608.59;5164163;28;20129;-80
2022/08/11 08:31:58;;;;;;;0.40;0.40;;;;;;;23.40;38.51;101607.78;5198863;28;20346;-81
2022/08/11 08:34:32;;;;;;;1.15;1.05;;;;;;;23.46;38.61;101602.00;5201760;28;20642;-81
2022/08/11 08:37:08;;;;;;;0.52;0.45;;;;;;;23.51;38.71;101605.19;5183043;28;20042;-82
2022/08/11 08:39:41;;;;;;;0.70;0.70;;;;;;;23.57;38.73;101606.63;5194057;28;20041;-81
2022/08/11 08:42:18;;;;;;;0.95;0.95;;;;;;;23.58;38.69;101606.53;5178837;28;20050;-81
2022/08/11 08:45:10;;;;;;;0.55;0.55;;;;;;;23.67;38.50;101604.19;5201314;28;20029;-82
2022/08/11 08:47:44;;;;;;;0.38;0.38;;;;;;;23.69;38.44;101615.63;5194111;28;20051;-82
2022/08/11 08:50:21;;;;;;;0.85;0.85;;;;;;;23.65;38.41;101609.63;5189727;28;20164;-81
2022/08/11 08:52:58;;;;;;;0.63;0.63;;;;;;;23.76;38.25;101610.72;5178900;28;20156;-81
2022/08/11 08:55:29;;;;;;;0.40;0.40;;;;;;;23.81;38.16;101606.75;5163672;28;20379;-81
2022/08/11 08:58:01;;;;;;;0.38;0.38;;;;;;;23.87;38.18;101611.69;5192525;28;20033;-82
2022/08/11 09:00:44;;;;;;;0.73;0.70;;;;;;;23.96;38.16;101604.00;5201041;28;20037;-80
2022/08/11 09:03:15;;;;;;;0.40;0.40;;;;;;;23.95;38.19;101607.63;5165072;28;20045;-83
2022/08/11 09:05:54;;;;;;;1.15;1.05;;;;;;;23.98;38.04;101610.13;5176740;28;20297;-80
2022/08/11 09:08:27;;;;;;;0.50;0.50;;;;;;;23.99;38.02;101603.78;5169559;28;20048;-82
2022/08/11 09:13:50;;;;;;;3.28;0.57;;;;;;;24.28;36.94;101603.53;5190861;28;20034;-81
2022/08/11 09:16:22;;;;;;;0.65;0.65;;;;;;;24.29;37.75;101602.56;5176926;28;20488;-81
2022/08/11 09:18:53;;;;;;;0.20;0.20;;;;;;;24.32;37.70;101605.03;5162004;28;20426;-81
2022/08/11 09:21:24;;;;;;;1.45;1.00;;;;;;;24.38;37.54;101604.59;5179612;28;20045;-81
2022/08/11 09:27:02;;;;;;;0.90;0.55;;;;;;;24.47;37.51;101606.63;5207626;28;20442;-82
2022/08/11 09:29:34;;;;;;;0.40;0.40;;;;;;;24.74;37.12;101610.97;5171338;28;20439;-82
2022/08/11 09:32:08;;;;;;;0.40;0.40;;;;;;;24.71;36.76;101603.16;5185017;28;20069;-81
2022/08/11 09:34:39;;;;;;;0.65;0.65;;;;;;;24.71;37.06;101605.84;5208799;28;20064;-82
2022/08/11 09:45:50;;;;;;;0.30;0.30;;;;;;;25.02;36.70;101597.34;5189236;28;20037;-82
2022/08/11 09:48:25;;;;;;;0.35;0.35;;;;;;;25.08;36.50;101597.72;5205414;28;20103;-81
2022/08/11 09:50:59;;;;;;;0.75;0.73;;;;;;;25.04;36.04;101592.72;5173041;28;20035;-82
2022/08/11 09:53:34;;;;;;;0.68;0.68;;;;;;;25.11;35.65;101591.28;5171966;28;20034;-80
2022/08/11 09:59:14;;;;;;;0.52;0.52;;;;;;;25.25;35.37;101587.53;5206376;28;20033;-82
2022/08/11 10:01:48;;;;;;;0.82;0.82;;;;;;;25.42;35.59;101584.44;5190832;28;20100;-81
2022/08/11 10:04:23;;;;;;;0.82;0.82;;;;;;;25.39;36.26;101579.34;5178369;28;20601;-81
2022/08/11 10:07:02;;;;;;;0.47;0.47;;;;;;;25.43;35.48;101583.47;5191539;28;20046;-81
2022/08/11 10:09:38;;;;;;;2.35;0.32;;;;;;;25.51;34.52;101577.53;5181775;28;20033;-81
2022/08/11 10:12:13;;;;;;;0.45;0.45;;;;;;;25.63;34.89;101580.22;5206854;28;20540;-81
2022/08/11 10:20:38;;;;;;;0.40;0.40;;;;;;;25.75;34.28;101564.00;5205785;28;20074;-80
2022/08/11 10:28:54;;;;;;;3.97;0.85;;;;;;;25.88;33.26;101557.66;5191808;28;20545;-80
2022/08/11 10:34:15;;;;;;;7.43;1.30;;;;;;;26.00;32.56;101556.69;5200459;28;20585;-81
2022/08/11 10:36:48;;;;;;;0.25;0.25;;;;;;;26.01;31.90;101563.78;5181807;28;20133;-81
2022/08/11 10:39:20;;;;;;;0.70;0.65;;;;;;;26.04;32.54;101554.59;5195600;28;20037;-81
2022/08/11 10:44:46;;;;;;;0.35;0.35;;;;;;;26.20;31.96;101549.72;5176228;28;20042;-82
2022/08/11 10:47:38;;;;;;;0.30;0.30;;;;;;;26.36;31.08;101535.91;5158726;28;20099;-81
2022/08/11 10:58:49;;;;;;;0.40;0.40;;;;;;;26.59;31.37;101538.53;5168058;28;20136;-81
2022/08/11 11:01:23;;;;;;;0.40;0.40;;;;;;;26.63;30.94;101531.94;5188856;28;20037;-82
2022/08/11 11:03:58;;;;;;;0.68;0.52;;;;;;;26.61;31.44;101531.19;5223461;28;20119;-81
2022/08/11 11:07:16;;;;;;;0.70;0.70;;;;;;;26.69;30.80;101520.66;5199281;28;20127;-81
2022/08/11 11:09:49;;;;;;;0.30;0.30;;;;;;;26.75;31.06;101515.72;5169848;28;20037;-82
2022/08/11 11:18:36;;;;;;;0.20;0.20;;;;;;;26.97;31.45;101515.69;5173345;28;20045;-80
2022/08/11 11:21:10;;;;;;;1.00;0.85;;;;;;;27.07;30.87;101513.03;5193845;28;20246;-80
2022/08/11 11:24:04;;;;;;;0.65;0.63;;;;;;;27.16;30.39;101514.09;5189915;28;20051;-81
2022/08/11 11:26:51;;;;;;;0.30;0.30;;;;;;;27.21;30.66;101508.31;5179794;28;20046;-81
2022/08/11 11:29:40;;;;;;;0.30;0.30;;;;;;;27.26;31.02;101503.41;5170468;28;20033;-81
2022/08/11 11:32:25;;;;;;;0.32;0.32;;;;;;;27.29;30.79;101498.59;5177946;28;20761;-81
2022/08/11 11:35:14;;;;;;;0.30;0.30;;;;;;;27.40;31.15;101492.28;5197488;28;20055;-81
2022/08/11 11:37:49;;;;;;;0.68;0.65;;;;;;;27.46;30.66;101494.47;5196997;28;20048;-81
2022/08/11 11:40:21;;;;;;;0.30;0.30;;;;;;;27.54;30.49;101490.25;5200841;28;20024;-79
2022/08/11 11:42:55;;;;;;;0.35;0.35;;;;;;;27.60;30.91;101487.03;5181673;28;20038;-79
2022/08/11 11:45:26;;;;;;;0.65;0.65;;;;;;;27.71;30.56;101486.91;5169159;28;20033;-80
2022/08/11 11:47:58;;;;;;;0.82;0.77;;;;;;;27.74;28.69;101480.41;5187270;28;20150;-81
2022/08/11 11:50:35;;;;;;;0.65;0.38;;;;;;;27.79;30.36;101480.84;5170302;28;20057;-81
2022/08/11 11:53:11;;;;;;;2.22;1.40;;;;;;;27.88;30.33;101479.19;5191992;28;20033;-81
2022/08/11 11:55:42;;;;;;;0.43;0.43;;;;;;;27.96;30.32;101471.25;5189099;28;20562;-81
2022/08/11 12:01:15;;;;;;;0.40;0.40;;;;;;;28.18;29.43;101470.22;5177463;28;20194;-80
2022/08/11 12:03:49;;;;;;;0.40;0.40;;;;;;;28.22;30.06;101460.81;5165941;28;20047;-79
2022/08/11 12:06:22;;;;;;;1.17;0.95;;;;;;;28.35;29.53;101463.25;5163510;28;20052;-80
2022/08/11 12:08:54;;;;;;;;;;;;;;;28.35;29.05;101457.84;5179966;28;20399;-81
2022/08/11 12:14:19;;;;;;;13.35;2.40;;;;;;;28.54;28.72;101448.06;5205622;28;20029;-81
2022/08/11 12:16:50;;;;;;;10.23;2.42;;;;;;;28.50;28.56;101447.50;5168504;28;20038;-80
2022/08/11 12:19:23;;;;;;;0.30;0.30;;;;;;;28.64;28.86;101448.06;5180100;28;20036;-80
2022/08/11 12:27:34;;;;;;;0.90;0.55;;;;;;;28.93;28.75;101434.56;5188608;28;20037;-80
2022/08/11 12:30:09;;;;;;;0.57;0.57;;;;;;;29.10;28.69;101422.19;5177987;28;20025;-80
2022/08/11 12:32:42;;;;;;;0.30;0.30;;;;;;;29.15;27.68;101425.28;5199863;28;20069;-81
2022/08/11 12:35:14;;;;;;;1.45;0.85;;;;;;;29.39;28.13;101426.66;5191600;28;20051;-81
2022/08/11 12:37:50;;;;;;;0.20;0.20;;;;;;;29.35;28.21;101419.84;5215576;28;20067;-81
2022/08/11 12:46:10;;;;;;;0.20;0.20;;;;;;;29.55;27.99;101403.53;5203253;28;20654;-80
2022/08/11 12:52:00;;;;;;;0.70;0.70;;;;;;;29.82;26.47;101394.56;5197319;28;20087;-80
2022/08/11 12:55:05;;;;;;;0.30;0.30;;;;;;;29.78;26.83;101399.44;5203529;28;20025;-80
2022/08/11 13:06:24;;;;;;;0.50;0.50;;;;;;;30.04;26.36;101384.34;5191373;28;20080;-80
2022/08/11 13:08:58;;;;;;;0.20;0.20;;;;;;;30.25;27.18;101375.91;5170781;28;20033;-80
2022/08/11 13:14:20;;;;;;;0.38;0.38;;;;;;;30.35;27.23;101376.69;5191366;28;20087;-80
2022/08/11 13:19:42;;;;;;;1.00;0.85;;;;;;;30.56;27.14;101370.09;5186011;28;20033;-80
2022/08/11 13:22:16;;;;;;;0.22;0.22;;;;;;;30.70;27.04;101376.81;5196806;28;20053;-81
2022/08/11 13:24:54;;;;;;;0.28;0.28;;;;;;;30.75;26.82;101369.03;5226547;28;20224;-80
2022/08/11 13:27:25;;;;;;;0.90;0.68;;;;;;;30.87;26.71;101362.38;5160682;28;20553;-81
2022/08/11 13:33:07;;;;;;;0.20;0.20;;;;;;;31.05;26.03;101351.44;5114523;28;20043;-81
2022/08/11 13:35:40;;;;;;;0.20;0.20;;;;;;;31.15;26.27;101347.81;5172821;28;20116;-81
2022/08/11 13:38:12;;;;;;;0.50;0.50;;;;;;;31.23;26.03;101351.44;5185353;28;20511;-80
2022/08/11 13:40:53;;;;;;;0.35;0.35;;;;;;;31.32;25.47;101354.16;5166286;28;20488;-80
2022/08/11 13:43:24;;;;;;;0.20;0.20;;;;;;;31.48;26.14;101348.81;5181724;28;20120;-81
2022/08/11 13:46:19;;;;;;;0.30;0.30;;;;;;;31.58;26.19;101348.66;5167107;28;20434;-81
2022/08/11 13:48:48;;;;;;;0.47;0.47;;;;;;;31.50;25.27;101345.91;5179440;28;20053;-81
2022/08/11 13:51:29;;;;;;;0.30;0.30;;;;;;;31.54;24.69;101341.84;5197326;28;20052;-80
2022/08/11 13:54:08;;;;;;;0.30;0.30;;;;;;;31.70;25.55;101339.22;5179615;28;20091;-81
2022/08/11 13:56:45;;;;;;;1.17;0.70;;;;;;;31.71;24.92;101329.22;5178961;28;20129;-81
2022/08/11 13:59:24;;;;;;;0.30;0.30;;;;;;;31.75;24.88;101337.88;5189273;28;20097;-81
2022/08/11 14:01:59;;;;;;;0.30;0.30;;;;;;;31.80;25.19;101341.78;5175980;28;20057;-81
2022/08/11 14:04:36;;;;;;;0.43;0.43;;;;;;;31.84;24.54;101336.88;5184633;28;20057;-81
2022/08/11 14:07:13;;;;;;;0.47;0.47;;;;;;;31.93;24.95;101325.03;5189939;28;20586;-81
2022/08/11 14:09:45;;;;;;;0.30;0.30;;;;;;;31.89;23.92;101329.06;5170873;28;20041;-80
2022/08/11 14:15:29;;;;;;;0.60;0.40;;;;;;;32.06;23.94;101315.53;5195446;28;20094;-80
2022/08/11 14:18:21;;;;;;;0.28;0.28;;;;;;;32.14;24.42;101320.94;5196969;28;20034;-80
2022/08/11 14:23:48;;;;;;;0.20;0.20;;;;;;;32.08;23.65;101317.03;5176889;28;20563;-80
2022/08/11 14:26:25;;;;;;;0.90;0.80;;;;;;;32.08;23.19;101316.22;5164675;28;20038;-80
2022/08/11 14:29:24;;;;;;;0.20;0.20;;;;;;;32.21;23.98;101310.28;5160672;28;20394;-80
2022/08/11 14:32:00;;;;;;;0.20;0.20;;;;;;;32.23;23.17;101311.81;5174483;28;20064;-80
2022/08/11 14:34:33;;;;;;;1.27;0.50;;;;;;;32.30;23.91;101306.56;5169647;28;20037;-80
2022/08/11 14:37:24;;;;;;;0.68;0.57;;;;;;;32.39;23.88;101296.53;5188436;28;20033;-82
2022/08/11 14:47:03;;;;;;;0.88;0.65;;;;;;;32.39;23.67;101291.09;5213745;28;20395;-81
2022/08/11 14:48:31;;;;;;;0.65;0.65;;;;;;;32.61;22.73;101290.38;5191376;28;20067;-81
2022/08/11 14:51:01;;;;;;;0.57;0.53;;;;;;;32.61;23.13;101289.53;5202762;28;20084;-83
2022/08/11 14:53:35;;;;;;;0.30;0.30;;;;;;;32.63;23.42;101282.06;5175040;28;20361;-80
2022/08/11 14:58:58;;;;;;;;;;;;;;;32.77;22.33;101275.03;5183868;28;20065;-81
2022/08/11 15:04:22;;;;;;;0.30;0.30;;;;;;;33.09;21.69;101273.28;5222832;28;20084;-83
2022/08/11 15:06:53;;;;;;;0.82;0.82;;;;;;;33.05;22.70;101274.63;5182998;28;20042;-81
2022/08/11 15:09:24;;;;;;;0.38;0.38;;;;;;;33.30;22.38;101269.94;5206900;28;20029;-82
2022/08/11 15:12:17;;;;;;;0.30;0.30;;;;;;;33.24;21.17;101268.78;5178406;28;20034;-84
2022/08/11 15:17:40;;;;;;;0.88;0.82;;;;;;;33.72;21.41;101256.91;5194590;28;20349;-81
2022/08/11 15:26:08;;;;;;;0.30;0.30;;;;;;;35.09;21.50;101250.44;5205467;28;20076;-83
2022/08/11 15:37:30;;;;;;;3.10;0.97;;;;;;;36.99;19.53;101236.25;5201742;28;20112;-82
2022/08/11 15:46:41;;;;;;;0.30;0.30;;;;;;;38.35;17.93;101229.88;5201183;28;20046;-82
2022/08/11 15:49:17;;;;;;;0.35;0.35;;;;;;;38.54;17.34;101223.50;5189448;28;20112;-81
2022/08/11 15:52:12;;;;;;;5.47;0.82;;;;;;;38.82;17.83;101222.34;5206494;28;20137;-83
2022/08/11 15:54:45;;;;;;;0.32;0.32;;;;;;;39.07;16.59;101213.38;5165433;28;20120;-82
2022/08/11 16:05:52;;;;;;;0.40;0.40;;;;;;;39.66;16.06;101213.19;5190211;28;20054;-82
2022/08/11 16:08:24;;;;;;;2.53;1.10;;;;;;;39.68;16.45;101211.06;5198639;28;20050;-82
2022/08/11 16:10:58;;;;;;;0.60;0.60;;;;;;;39.65;17.13;101212.38;5192768;28;20120;-84
2022/08/11 16:16:26;;;;;;;0.35;0.35;;;;;;;39.41;16.93;101205.78;5199262;28;20569;-82
2022/08/11 16:19:09;;;;;;;0.28;0.28;;;;;;;39.29;16.66;101204.84;5227004;28;20491;-82
2022/08/11 16:21:49;;;;;;;0.52;0.52;;;;;;;39.11;16.93;101194.56;5183440;28;20063;-84
2022/08/11 16:24:22;;;;;;;0.63;0.63;;;;;;;38.99;17.53;101198.03;5198817;28;20080;-81
2022/08/11 16:26:54;;;;;;;0.20;0.20;;;;;;;38.63;16.70;101199.44;5191822;28;20049;-81
2022/08/11 16:29:30;;;;;;;0.32;0.32;;;;;;;38.53;17.66;101188.94;5176891;28;20030;-81
2022/08/11 16:32:16;;;;;;;1.45;1.15;;;;;;;38.24;17.82;101184.78;5190280;28;20037;-81
2022/08/11 16:40:41;;;;;;;0.32;0.32;;;;;;;37.39;17.94;101188.19;5195441;28;20065;-82
2022/08/11 16:49:11;;;;;;;0.35;0.35;;;;;;;36.60;18.30;101194.00;5209045;28;20128;-82
2022/08/11 16:51:42;;;;;;;0.82;0.75;;;;;;;36.43;18.75;101189.94;5193627;28;20038;-82
2022/08/11 16:54:13;;;;;;;0.32;0.32;;;;;;;36.13;19.15;101185.53;5196084;28;20038;-84
2022/08/11 16:56:55;;;;;;;0.75;0.75;;;;;;;35.97;19.39;101192.16;5163691;28;20053;-80
2022/08/11 16:59:31;;;;;;;0.30;0.30;;;;;;;35.74;19.46;101185.00;5186447;28;20046;-81
2022/08/11 17:02:10;;;;;;;0.25;0.25;;;;;;;35.33;19.19;101193.84;5165199;28;20046;-82
2022/08/11 17:14:08;;;;;;;3.72;1.80;;;;;;;34.51;20.23;101193.09;5189648;28;20064;-83
2022/08/11 17:16:40;;;;;;;0.40;0.40;;;;;;;34.38;20.15;101196.47;5202323;28;20064;-82
2022/08/11 17:19:17;;;;;;;;;;;;;;;34.15;20.29;101185.63;5181321;28;20025;-82
2022/08/11 17:24:50;;;;;;;0.52;0.52;;;;;;;33.81;20.75;101185.09;5167304;28;20125;-84
2022/08/11 17:27:23;;;;;;;0.30;0.30;;;;;;;33.51;20.77;101182.25;5186779;28;20045;-82
2022/08/11 17:30:00;;;;;;;0.93;0.90;;;;;;;33.36;21.32;101190.38;5191733;28;20054;-82
2022/08/11 17:35:37;;;;;;;0.40;0.40;;;;;;;33.15;21.33;101188.28;5212881;28;20063;-82
2022/08/11 17:38:19;;;;;;;0.43;0.30;;;;;;;33.10;21.63;101187.97;5171084;28;20033;-82
2022/08/11 17:49:51;;;;;;;0.40;0.40;;;;;;;32.62;22.17;101199.72;5142599;28;20034;-83
2022/08/11 18:00:59;;;;;;;1.10;0.93;;;;;;;32.23;22.78;101202.41;5184054;28;20555;-83
2022/08/11 18:03:32;;;;;;;1.55;1.20;;;;;;;32.20;22.47;101200.81;5199104;28;20032;-83
2022/08/11 18:06:10;;;;;;;0.55;0.47;;;;;;;32.12;22.73;101198.13;5198424;28;20107;-83
